Accueil
METAR-TAF:

METAR-TAF

Aéroports :

Aéroport de Longyearbyen

Longyearbyen, Norvège

latitude: 78-15N, longitude: 015-28E, altitude: 2 m

Observation

Le bulletin a été fait il y a 26 minutes, à 19:20 UTC
Vent 3 kt de est/sud-est, variant entre est et sud/sud-est
Température -10°C
Humidité 61%
Pression 993 hPa
Visibilité 10 km ou plus
Quelques nuages à une hauteur de 4800 ft

METAR: ENSB 161920Z 11003KT 080V160 9999 FEW048 M10/M16 Q0993 RMK WIND 1400FT 29002KT

Heure: 20:46 (19:46 UTC)

Prévision

Prévision valable du 16 à 18 UTC au 17 à 18 UTC
Vent 8 kt de est/sud-est
Visibilité 10 km ou plus
Quelques nuages à une hauteur de 2000 ft
Nuages fragmentés à une hauteur de 4000 ft
Temporairement
du 17 à 12 UTC au 17 à 18 UTC
Vent 12 kt de nord-est

TAF: ENSB 1618/1718 12008KT 9999 FEW020 BKN040 TEMPO 1712/1718 04012KT

Observations et prévisions météorologiques de plus de 4000 aéroports (messages METAR et TAF).

Les stations disponibles sont représentées par des disques jaunes et rouges sur la carte.

Passer la souris dessus pour voir le nom de la station.

Cliquer dessus pour voir les observations et prévisions météorologiques.

Pour changer de carte: cliquez sur les boutons verts avec une croix noire pour zoomer, sur le bouton vert avec un tiret pour effectuer un zoom arrière, ou sur les flèches vertes pour les cartes adjacentes.


METAR-TAF: